sensor_id;sensor_type;location;lat;lon;timestamp;temperature;humidity
68248;SHT30;55064;49.636;12.164;2023-08-08T00:00:56;10.35;98.44
68248;SHT30;55064;49.636;12.164;2023-08-08T00:10:06;10.17;98.74
68248;SHT30;55064;49.636;12.164;2023-08-08T00:26:27;10.04;98.35
68248;SHT30;55064;49.636;12.164;2023-08-08T00:32:14;10.10;98.12
68248;SHT30;55064;49.636;12.164;2023-08-08T00:34:39;10.07;98.16
68248;SHT30;55064;49.636;12.164;2023-08-08T00:37:07;10.11;98.23
68248;SHT30;55064;49.636;12.164;2023-08-08T00:39:32;10.17;98.24
68248;SHT30;55064;49.636;12.164;2023-08-08T00:41:57;10.17;98.13
68248;SHT30;55064;49.636;12.164;2023-08-08T00:44:23;10.27;97.84
68248;SHT30;55064;49.636;12.164;2023-08-08T00:46:48;10.30;98.14
68248;SHT30;55064;49.636;12.164;2023-08-08T00:49:14;10.34;98.11
68248;SHT30;55064;49.636;12.164;2023-08-08T00:51:40;10.40;97.81
68248;SHT30;55064;49.636;12.164;2023-08-08T00:54:06;10.45;97.71
68248;SHT30;55064;49.636;12.164;2023-08-08T00:56:33;10.49;97.31
68248;SHT30;55064;49.636;12.164;2023-08-08T00:59:02;10.53;97.47
68248;SHT30;55064;49.636;12.164;2023-08-08T01:01:27;10.55;97.50
68248;SHT30;55064;49.636;12.164;2023-08-08T01:03:53;10.56;97.35
68248;SHT30;55064;49.636;12.164;2023-08-08T01:06:29;10.62;97.14
68248;SHT30;55064;49.636;12.164;2023-08-08T01:12:01;10.65;97.16
68248;SHT30;55064;49.636;12.164;2023-08-08T01:14:29;10.69;96.56
68248;SHT30;55064;49.636;12.164;2023-08-08T01:16:57;10.70;96.46
68248;SHT30;55064;49.636;12.164;2023-08-08T01:19:31;10.75;96.31
68248;SHT30;55064;49.636;12.164;2023-08-08T01:22:05;10.77;96.63
68248;SHT30;55064;49.636;12.164;2023-08-08T01:24:32;10.81;96.49
68248;SHT30;55064;49.636;12.164;2023-08-08T01:27:00;10.83;96.54
68248;SHT30;55064;49.636;12.164;2023-08-08T01:29:26;10.79;96.81
68248;SHT30;55064;49.636;12.164;2023-08-08T01:31:55;10.80;96.84
68248;SHT30;55064;49.636;12.164;2023-08-08T01:34:21;10.81;96.90
68248;SHT30;55064;49.636;12.164;2023-08-08T01:37:01;10.86;97.04
68248;SHT30;55064;49.636;12.164;2023-08-08T01:39:30;10.86;96.96
68248;SHT30;55064;49.636;12.164;2023-08-08T01:41:56;10.90;96.86
68248;SHT30;55064;49.636;12.164;2023-08-08T01:44:24;10.92;96.71
68248;SHT30;55064;49.636;12.164;2023-08-08T01:46:55;10.89;97.24
68248;SHT30;55064;49.636;12.164;2023-08-08T01:49:21;10.81;97.58
68248;SHT30;55064;49.636;12.164;2023-08-08T01:51:46;10.73;98.39
68248;SHT30;55064;49.636;12.164;2023-08-08T01:54:13;10.70;98.30
68248;SHT30;55064;49.636;12.164;2023-08-08T01:56:41;10.72;98.31
68248;SHT30;55064;49.636;12.164;2023-08-08T01:59:06;10.75;98.15
68248;SHT30;55064;49.636;12.164;2023-08-08T02:01:35;10.81;98.03
68248;SHT30;55064;49.636;12.164;2023-08-08T02:04:00;10.76;97.79
68248;SHT30;55064;49.636;12.164;2023-08-08T02:06:26;10.72;98.44
68248;SHT30;55064;49.636;12.164;2023-08-08T02:08:52;10.73;98.39
68248;SHT30;55064;49.636;12.164;2023-08-08T02:11:19;10.59;98.67
68248;SHT30;55064;49.636;12.164;2023-08-08T02:13:46;10.62;98.60
68248;SHT30;55064;49.636;12.164;2023-08-08T02:16:12;10.66;98.32
68248;SHT30;55064;49.636;12.164;2023-08-08T02:18:40;10.70;98.34
68248;SHT30;55064;49.636;12.164;2023-08-08T02:21:09;10.69;98.17
68248;SHT30;55064;49.636;12.164;2023-08-08T02:23:37;10.69;97.95
68248;SHT30;55064;49.636;12.164;2023-08-08T02:26:03;10.73;98.21
68248;SHT30;55064;49.636;12.164;2023-08-08T02:28:28;10.69;98.04
68248;SHT30;55064;49.636;12.164;2023-08-08T02:30:54;10.69;98.17
68248;SHT30;55064;49.636;12.164;2023-08-08T02:33:19;10.72;98.36
68248;SHT30;55064;49.636;12.164;2023-08-08T02:35:46;10.70;98.37
68248;SHT30;55064;49.636;12.164;2023-08-08T02:38:13;10.72;97.80
68248;SHT30;55064;49.636;12.164;2023-08-08T02:40:39;10.73;97.85
68248;SHT30;55064;49.636;12.164;2023-08-08T02:43:05;10.75;97.78
68248;SHT30;55064;49.636;12.164;2023-08-08T02:45:30;10.80;97.74
68248;SHT30;55064;49.636;12.164;2023-08-08T02:47:56;10.80;97.64
68248;SHT30;55064;49.636;12.164;2023-08-08T02:50:21;10.80;97.35
68248;SHT30;55064;49.636;12.164;2023-08-08T02:52:49;10.83;97.21
68248;SHT30;55064;49.636;12.164;2023-08-08T02:55:14;10.83;97.33
68248;SHT30;55064;49.636;12.164;2023-08-08T02:57:42;10.90;96.87
68248;SHT30;55064;49.636;12.164;2023-08-08T03:00:07;10.89;97.24
68248;SHT30;55064;49.636;12.164;2023-08-08T03:02:33;10.95;97.21
68248;SHT30;55064;49.636;12.164;2023-08-08T03:04:59;10.95;97.34
68248;SHT30;55064;49.636;12.164;2023-08-08T03:07:25;10.95;97.28
68248;SHT30;55064;49.636;12.164;2023-08-08T03:09:53;10.96;97.18
68248;SHT30;55064;49.636;12.164;2023-08-08T03:12:18;10.90;97.71
68248;SHT30;55064;49.636;12.164;2023-08-08T03:14:43;10.90;97.72
68248;SHT30;55064;49.636;12.164;2023-08-08T03:17:09;10.86;97.72
68248;SHT30;55064;49.636;12.164;2023-08-08T03:19:34;10.89;97.67
68248;SHT30;55064;49.636;12.164;2023-08-08T03:22:02;10.87;97.71
68248;SHT30;55064;49.636;12.164;2023-08-08T03:24:30;10.83;97.77
68248;SHT30;55064;49.636;12.164;2023-08-08T03:26:58;10.77;97.81
68248;SHT30;55064;49.636;12.164;2023-08-08T03:29:25;10.69;98.00
68248;SHT30;55064;49.636;12.164;2023-08-08T03:31:52;10.63;98.22
68248;SHT30;55064;49.636;12.164;2023-08-08T03:34:17;10.56;98.60
68248;SHT30;55064;49.636;12.164;2023-08-08T03:36:46;10.55;98.47
68248;SHT30;55064;49.636;12.164;2023-08-08T03:39:12;10.51;98.49
68248;SHT30;55064;49.636;12.164;2023-08-08T03:41:38;10.46;98.47
68248;SHT30;55064;49.636;12.164;2023-08-08T03:44:03;10.42;98.50
68248;SHT30;55064;49.636;12.164;2023-08-08T03:46:29;10.45;98.84
68248;SHT30;55064;49.636;12.164;2023-08-08T03:48:55;10.45;98.87
68248;SHT30;55064;49.636;12.164;2023-08-08T03:51:20;10.45;98.53
68248;SHT30;55064;49.636;12.164;2023-08-08T03:53:54;10.46;98.59
68248;SHT30;55064;49.636;12.164;2023-08-08T03:56:22;10.52;98.70
68248;SHT30;55064;49.636;12.164;2023-08-08T03:58:47;10.53;98.39
68248;SHT30;55064;49.636;12.164;2023-08-08T04:01:14;10.53;98.78
68248;SHT30;55064;49.636;12.164;2023-08-08T04:03:42;10.56;98.72
68248;SHT30;55064;49.636;12.164;2023-08-08T04:06:07;10.59;98.72
68248;SHT30;55064;49.636;12.164;2023-08-08T04:08:35;10.52;98.73
68248;SHT30;55064;49.636;12.164;2023-08-08T04:11:03;10.49;98.75
68248;SHT30;55064;49.636;12.164;2023-08-08T04:13:29;10.48;98.89
68248;SHT30;55064;49.636;12.164;2023-08-08T04:15:54;10.52;99.02
68248;SHT30;55064;49.636;12.164;2023-08-08T04:25:04;10.58;98.85
68248;SHT30;55064;49.636;12.164;2023-08-08T04:30:54;10.61;98.88
68248;SHT30;55064;49.636;12.164;2023-08-08T04:36:41;10.68;99.08
68248;SHT30;55064;49.636;12.164;2023-08-08T04:52:29;10.99;97.82
68248;SHT30;55064;49.636;12.164;2023-08-08T05:01:31;11.06;97.64
68248;SHT30;55064;49.636;12.164;2023-08-08T05:20:27;11.32;96.40
68248;SHT30;55064;49.636;12.164;2023-08-08T05:26:16;11.35;96.47
68248;SHT30;55064;49.636;12.164;2023-08-08T05:32:05;11.32;96.71
68248;SHT30;55064;49.636;12.164;2023-08-08T05:37:53;11.48;96.38
68248;SHT30;55064;49.636;12.164;2023-08-08T05:43:40;11.65;96.15
68248;SHT30;55064;49.636;12.164;2023-08-08T05:52:49;11.86;95.33
68248;SHT30;55064;49.636;12.164;2023-08-08T06:02:02;12.21;94.66
68248;SHT30;55064;49.636;12.164;2023-08-08T06:07:50;12.41;93.76
68248;SHT30;55064;49.636;12.164;2023-08-08T06:13:37;12.38;93.25
68248;SHT30;55064;49.636;12.164;2023-08-08T06:22:46;12.86;93.39
68248;SHT30;55064;49.636;12.164;2023-08-08T06:28:32;13.02;93.36
68248;SHT30;55064;49.636;12.164;2023-08-08T06:34:19;13.23;90.51
68248;SHT30;55064;49.636;12.164;2023-08-08T06:37:10;13.26;91.24
68248;SHT30;55064;49.636;12.164;2023-08-08T06:42:57;13.48;89.87
68248;SHT30;55064;49.636;12.164;2023-08-08T06:45:57;13.53;89.13
68248;SHT30;55064;49.636;12.164;2023-08-08T06:51:46;13.64;88.47
68248;SHT30;55064;49.636;12.164;2023-08-08T06:54:24;13.78;88.00
68248;SHT30;55064;49.636;12.164;2023-08-08T06:57:11;13.96;88.03
68248;SHT30;55064;49.636;12.164;2023-08-08T06:59:45;14.00;87.28
68248;SHT30;55064;49.636;12.164;2023-08-08T07:02:22;13.99;85.90
68248;SHT30;55064;49.636;12.164;2023-08-08T07:04:50;14.05;86.79
68248;SHT30;55064;49.636;12.164;2023-08-08T07:07:15;14.09;86.77
68248;SHT30;55064;49.636;12.164;2023-08-08T07:09:41;14.17;86.48
68248;SHT30;55064;49.636;12.164;2023-08-08T07:12:13;14.14;86.80
68248;SHT30;55064;49.636;12.164;2023-08-08T07:14:44;14.16;85.63
68248;SHT30;55064;49.636;12.164;2023-08-08T07:17:11;14.24;86.28
68248;SHT30;55064;49.636;12.164;2023-08-08T07:19:36;14.31;85.54
68248;SHT30;55064;49.636;12.164;2023-08-08T07:22:02;14.40;85.50
68248;SHT30;55064;49.636;12.164;2023-08-08T07:24:29;14.41;84.91
68248;SHT30;55064;49.636;12.164;2023-08-08T07:26:55;14.60;85.89
68248;SHT30;55064;49.636;12.164;2023-08-08T07:29:21;14.79;85.73
68248;SHT30;55064;49.636;12.164;2023-08-08T07:31:48;14.92;85.70
68248;SHT30;55064;49.636;12.164;2023-08-08T07:34:21;15.03;84.21
68248;SHT30;55064;49.636;12.164;2023-08-08T07:36:53;15.04;84.07
68248;SHT30;55064;49.636;12.164;2023-08-08T07:39:19;15.12;84.04
68248;SHT30;55064;49.636;12.164;2023-08-08T07:41:46;15.16;83.44
68248;SHT30;55064;49.636;12.164;2023-08-08T07:44:14;15.18;82.12
68248;SHT30;55064;49.636;12.164;2023-08-08T07:46:39;15.24;82.84
68248;SHT30;55064;49.636;12.164;2023-08-08T07:49:04;15.33;82.54
68248;SHT30;55064;49.636;12.164;2023-08-08T07:51:35;15.27;82.02
68248;SHT30;55064;49.636;12.164;2023-08-08T08:00:37;15.61;80.22
68248;SHT30;55064;49.636;12.164;2023-08-08T08:03:04;15.99;80.66
68248;SHT30;55064;49.636;12.164;2023-08-08T08:05:30;15.91;80.99
68248;SHT30;55064;49.636;12.164;2023-08-08T08:07:55;15.92;79.91
68248;SHT30;55064;49.636;12.164;2023-08-08T08:10:22;15.91;80.84
68248;SHT30;55064;49.636;12.164;2023-08-08T08:12:47;16.06;78.78
68248;SHT30;55064;49.636;12.164;2023-08-08T08:15:15;16.34;78.31
68248;SHT30;55064;49.636;12.164;2023-08-08T08:17:40;16.41;76.82
68248;SHT30;55064;49.636;12.164;2023-08-08T08:20:07;16.39;77.70
68248;SHT30;55064;49.636;12.164;2023-08-08T08:22:37;16.60;76.66
68248;SHT30;55064;49.636;12.164;2023-08-08T08:25:04;16.36;76.11
68248;SHT30;55064;49.636;12.164;2023-08-08T08:27:30;16.72;74.87
68248;SHT30;55064;49.636;12.164;2023-08-08T08:29:55;16.77;74.56
68248;SHT30;55064;49.636;12.164;2023-08-08T08:32:21;16.63;75.28
68248;SHT30;55064;49.636;12.164;2023-08-08T08:34:46;16.70;76.07
68248;SHT30;55064;49.636;12.164;2023-08-08T08:37:13;17.11;75.64
68248;SHT30;55064;49.636;12.164;2023-08-08T08:39:40;17.54;74.38
68248;SHT30;55064;49.636;12.164;2023-08-08T08:42:10;17.59;72.50
68248;SHT30;55064;49.636;12.164;2023-08-08T08:44:42;17.74;72.27
68248;SHT30;55064;49.636;12.164;2023-08-08T08:47:08;17.82;71.64
68248;SHT30;55064;49.636;12.164;2023-08-08T08:49:38;17.94;71.32
68248;SHT30;55064;49.636;12.164;2023-08-08T08:52:04;17.53;71.32
68248;SHT30;55064;49.636;12.164;2023-08-08T08:54:32;17.44;72.20
68248;SHT30;55064;49.636;12.164;2023-08-08T08:56:58;17.60;71.69
68248;SHT30;55064;49.636;12.164;2023-08-08T08:59:24;18.09;71.32
68248;SHT30;55064;49.636;12.164;2023-08-08T09:01:53;18.21;70.17
68248;SHT30;55064;49.636;12.164;2023-08-08T09:04:19;17.98;70.46
68248;SHT30;55064;49.636;12.164;2023-08-08T09:06:46;18.05;70.31
68248;SHT30;55064;49.636;12.164;2023-08-08T09:09:12;17.60;69.96
68248;SHT30;55064;49.636;12.164;2023-08-08T09:15:01;17.66;71.09
68248;SHT30;55064;49.636;12.164;2023-08-08T09:20:29;18.26;68.13
68248;SHT30;55064;49.636;12.164;2023-08-08T09:23:18;18.19;67.43
68248;SHT30;55064;49.636;12.164;2023-08-08T09:29:06;18.43;66.98
68248;SHT30;55064;49.636;12.164;2023-08-08T09:34:53;18.75;64.60
68248;SHT30;55064;49.636;12.164;2023-08-08T09:37:43;18.94;64.56
68248;SHT30;55064;49.636;12.164;2023-08-08T09:40:09;19.05;63.46
68248;SHT30;55064;49.636;12.164;2023-08-08T09:42:36;18.90;63.33
68248;SHT30;55064;49.636;12.164;2023-08-08T09:45:03;19.08;62.53
68248;SHT30;55064;49.636;12.164;2023-08-08T09:47:51;19.71;62.33
68248;SHT30;55064;49.636;12.164;2023-08-08T09:50:20;19.18;59.98
68248;SHT30;55064;49.636;12.164;2023-08-08T09:52:46;19.04;60.45
68248;SHT30;55064;49.636;12.164;2023-08-08T09:55:12;19.23;61.35
68248;SHT30;55064;49.636;12.164;2023-08-08T09:57:41;19.35;61.81
68248;SHT30;55064;49.636;12.164;2023-08-08T10:00:08;18.88;62.39
68248;SHT30;55064;49.636;12.164;2023-08-08T10:02:44;19.16;61.92
68248;SHT30;55064;49.636;12.164;2023-08-08T10:05:11;18.90;61.70
68248;SHT30;55064;49.636;12.164;2023-08-08T10:07:41;19.32;60.69
68248;SHT30;55064;49.636;12.164;2023-08-08T10:10:08;18.75;62.32
68248;SHT30;55064;49.636;12.164;2023-08-08T10:12:39;18.29;64.66
68248;SHT30;55064;49.636;12.164;2023-08-08T10:15:10;18.21;64.63
68248;SHT30;55064;49.636;12.164;2023-08-08T10:17:40;18.12;64.08
68248;SHT30;55064;49.636;12.164;2023-08-08T10:20:08;18.37;63.75
68248;SHT30;55064;49.636;12.164;2023-08-08T10:22:42;18.84;63.38
68248;SHT30;55064;49.636;12.164;2023-08-08T10:25:07;19.02;61.03
68248;SHT30;55064;49.636;12.164;2023-08-08T10:27:38;19.14;59.70
68248;SHT30;55064;49.636;12.164;2023-08-08T10:30:08;18.92;60.95
68248;SHT30;55064;49.636;12.164;2023-08-08T10:32:43;19.36;60.84
68248;SHT30;55064;49.636;12.164;2023-08-08T10:35:11;19.39;59.89
68248;SHT30;55064;49.636;12.164;2023-08-08T10:37:37;19.52;60.24
68248;SHT30;55064;49.636;12.164;2023-08-08T10:40:07;19.47;58.99
68248;SHT30;55064;49.636;12.164;2023-08-08T10:45:51;18.53;61.00
68248;SHT30;55064;49.636;12.164;2023-08-08T10:51:42;18.10;62.97
68248;SHT30;55064;49.636;12.164;2023-08-08T10:54:13;17.95;62.72
68248;SHT30;55064;49.636;12.164;2023-08-08T10:56:39;18.50;61.86
68248;SHT30;55064;49.636;12.164;2023-08-08T10:59:20;19.08;60.76
68248;SHT30;55064;49.636;12.164;2023-08-08T11:01:47;19.16;60.20
68248;SHT30;55064;49.636;12.164;2023-08-08T11:04:13;19.43;57.94
68248;SHT30;55064;49.636;12.164;2023-08-08T11:06:39;19.90;57.26
68248;SHT30;55064;49.636;12.164;2023-08-08T11:09:08;19.94;55.83
68248;SHT30;55064;49.636;12.164;2023-08-08T11:11:38;19.84;55.81
68248;SHT30;55064;49.636;12.164;2023-08-08T11:14:12;19.78;55.79
68248;SHT30;55064;49.636;12.164;2023-08-08T11:16:40;19.92;55.82
68248;SHT30;55064;49.636;12.164;2023-08-08T11:19:06;20.00;54.68
68248;SHT30;55064;49.636;12.164;2023-08-08T11:21:36;20.08;52.61
68248;SHT30;55064;49.636;12.164;2023-08-08T11:24:03;19.83;53.82
68248;SHT30;55064;49.636;12.164;2023-08-08T11:26:29;19.59;54.78
68248;SHT30;55064;49.636;12.164;2023-08-08T11:28:58;19.71;54.56
68248;SHT30;55064;49.636;12.164;2023-08-08T11:31:26;19.92;55.78
68248;SHT30;55064;49.636;12.164;2023-08-08T11:33:55;20.09;54.76
68248;SHT30;55064;49.636;12.164;2023-08-08T11:36:22;19.94;55.19
68248;SHT30;55064;49.636;12.164;2023-08-08T11:38:57;20.04;55.61
68248;SHT30;55064;49.636;12.164;2023-08-08T11:41:23;20.17;55.45
68248;SHT30;55064;49.636;12.164;2023-08-08T11:43:52;19.91;54.76
68248;SHT30;55064;49.636;12.164;2023-08-08T11:46:18;19.67;54.38
68248;SHT30;55064;49.636;12.164;2023-08-08T11:48:46;19.54;53.29
68248;SHT30;55064;49.636;12.164;2023-08-08T11:51:15;19.22;52.42
68248;SHT30;55064;49.636;12.164;2023-08-08T11:53:52;19.47;52.45
68248;SHT30;55064;49.636;12.164;2023-08-08T11:56:21;19.64;53.00
68248;SHT30;55064;49.636;12.164;2023-08-08T11:58:49;19.62;53.07
68248;SHT30;55064;49.636;12.164;2023-08-08T12:01:17;19.90;51.64
68248;SHT30;55064;49.636;12.164;2023-08-08T12:03:45;20.08;52.00
68248;SHT30;55064;49.636;12.164;2023-08-08T12:06:15;19.85;52.20
68248;SHT30;55064;49.636;12.164;2023-08-08T12:08:45;20.09;52.89
68248;SHT30;55064;49.636;12.164;2023-08-08T12:11:12;20.04;52.20
68248;SHT30;55064;49.636;12.164;2023-08-08T12:13:43;20.11;52.59
68248;SHT30;55064;49.636;12.164;2023-08-08T12:16:10;20.09;52.55
68248;SHT30;55064;49.636;12.164;2023-08-08T12:18:38;19.95;52.82
68248;SHT30;55064;49.636;12.164;2023-08-08T12:21:05;20.09;54.22
68248;SHT30;55064;49.636;12.164;2023-08-08T12:23:34;20.01;53.55
68248;SHT30;55064;49.636;12.164;2023-08-08T12:26:03;19.70;54.01
68248;SHT30;55064;49.636;12.164;2023-08-08T12:28:32;19.88;53.65
68248;SHT30;55064;49.636;12.164;2023-08-08T12:31:01;19.45;54.55
68248;SHT30;55064;49.636;12.164;2023-08-08T12:33:26;19.54;54.47
68248;SHT30;55064;49.636;12.164;2023-08-08T12:35:52;19.83;54.20
68248;SHT30;55064;49.636;12.164;2023-08-08T12:38:18;19.94;53.31
68248;SHT30;55064;49.636;12.164;2023-08-08T12:40:46;20.11;54.13
68248;SHT30;55064;49.636;12.164;2023-08-08T12:43:12;19.94;53.11
68248;SHT30;55064;49.636;12.164;2023-08-08T12:45:44;20.07;53.79
68248;SHT30;55064;49.636;12.164;2023-08-08T12:48:12;20.14;52.32
68248;SHT30;55064;49.636;12.164;2023-08-08T12:50:38;20.22;52.02
68248;SHT30;55064;49.636;12.164;2023-08-08T12:53:04;20.09;51.72
68248;SHT30;55064;49.636;12.164;2023-08-08T12:55:31;19.98;51.07
68248;SHT30;55064;49.636;12.164;2023-08-08T12:57:57;19.98;49.89
68248;SHT30;55064;49.636;12.164;2023-08-08T13:00:22;19.94;50.11
68248;SHT30;55064;49.636;12.164;2023-08-08T13:02:50;20.14;50.73
68248;SHT30;55064;49.636;12.164;2023-08-08T13:05:16;20.11;49.96
68248;SHT30;55064;49.636;12.164;2023-08-08T13:07:41;20.21;49.84
68248;SHT30;55064;49.636;12.164;2023-08-08T13:10:11;20.47;49.73
68248;SHT30;55064;49.636;12.164;2023-08-08T13:12:37;20.52;49.55
68248;SHT30;55064;49.636;12.164;2023-08-08T13:15:03;20.45;48.63
68248;SHT30;55064;49.636;12.164;2023-08-08T13:17:31;20.62;47.81
68248;SHT30;55064;49.636;12.164;2023-08-08T13:19:57;20.63;48.31
68248;SHT30;55064;49.636;12.164;2023-08-08T13:22:22;20.81;49.54
68248;SHT30;55064;49.636;12.164;2023-08-08T13:24:48;20.81;48.50
68248;SHT30;55064;49.636;12.164;2023-08-08T13:27:14;20.73;48.52
68248;SHT30;55064;49.636;12.164;2023-08-08T13:29:39;20.73;49.24
68248;SHT30;55064;49.636;12.164;2023-08-08T13:32:06;20.43;49.27
68248;SHT30;55064;49.636;12.164;2023-08-08T13:34:31;20.67;49.12
68248;SHT30;55064;49.636;12.164;2023-08-08T13:36:56;21.07;49.51
68248;SHT30;55064;49.636;12.164;2023-08-08T13:39:24;21.14;48.98
68248;SHT30;55064;49.636;12.164;2023-08-08T13:41:49;21.17;49.53
68248;SHT30;55064;49.636;12.164;2023-08-08T13:44:14;21.12;49.44
68248;SHT30;55064;49.636;12.164;2023-08-08T13:46:40;21.17;49.71
68248;SHT30;55064;49.636;12.164;2023-08-08T13:49:05;21.15;49.62
68248;SHT30;55064;49.636;12.164;2023-08-08T13:51:31;21.05;49.16
68248;SHT30;55064;49.636;12.164;2023-08-08T13:53:59;21.28;49.01
68248;SHT30;55064;49.636;12.164;2023-08-08T13:56:25;21.32;48.42
68248;SHT30;55064;49.636;12.164;2023-08-08T13:58:54;21.27;47.43
68248;SHT30;55064;49.636;12.164;2023-08-08T14:01:23;21.31;47.38
68248;SHT30;55064;49.636;12.164;2023-08-08T14:03:49;21.48;47.62
68248;SHT30;55064;49.636;12.164;2023-08-08T14:06:16;21.62;48.15
68248;SHT30;55064;49.636;12.164;2023-08-08T14:08:44;21.49;47.34
68248;SHT30;55064;49.636;12.164;2023-08-08T14:11:11;21.57;46.94
68248;SHT30;55064;49.636;12.164;2023-08-08T14:13:36;21.84;46.69
68248;SHT30;55064;49.636;12.164;2023-08-08T14:16:02;21.52;46.24
68248;SHT30;55064;49.636;12.164;2023-08-08T14:18:27;21.37;46.01
68248;SHT30;55064;49.636;12.164;2023-08-08T14:20:53;21.24;47.54
68248;SHT30;55064;49.636;12.164;2023-08-08T14:23:19;21.10;46.94
68248;SHT30;55064;49.636;12.164;2023-08-08T14:25:44;21.11;47.89
68248;SHT30;55064;49.636;12.164;2023-08-08T14:28:10;21.17;45.93
68248;SHT30;55064;49.636;12.164;2023-08-08T14:30:37;20.87;46.16
68248;SHT30;55064;49.636;12.164;2023-08-08T14:33:03;20.87;45.91
68248;SHT30;55064;49.636;12.164;2023-08-08T14:35:28;20.90;46.93
68248;SHT30;55064;49.636;12.164;2023-08-08T14:37:54;20.88;47.79
68248;SHT30;55064;49.636;12.164;2023-08-08T14:40:19;20.85;48.53
68248;SHT30;55064;49.636;12.164;2023-08-08T14:42:44;20.76;47.27
68248;SHT30;55064;49.636;12.164;2023-08-08T14:45:10;20.73;47.17
68248;SHT30;55064;49.636;12.164;2023-08-08T14:47:35;20.42;48.96
68248;SHT30;55064;49.636;12.164;2023-08-08T14:50:01;20.53;47.74
68248;SHT30;55064;49.636;12.164;2023-08-08T14:52:26;20.73;47.97
68248;SHT30;55064;49.636;12.164;2023-08-08T14:54:54;20.90;47.62
68248;SHT30;55064;49.636;12.164;2023-08-08T14:57:20;21.14;47.24
68248;SHT30;55064;49.636;12.164;2023-08-08T14:59:46;21.08;46.25
68248;SHT30;55064;49.636;12.164;2023-08-08T15:02:12;20.97;44.68
68248;SHT30;55064;49.636;12.164;2023-08-08T15:04:38;20.74;46.10
68248;SHT30;55064;49.636;12.164;2023-08-08T15:07:05;20.66;46.51
68248;SHT30;55064;49.636;12.164;2023-08-08T15:09:31;20.90;47.94
68248;SHT30;55064;49.636;12.164;2023-08-08T15:11:56;20.81;46.41
68248;SHT30;55064;49.636;12.164;2023-08-08T15:14:21;20.74;46.53
68248;SHT30;55064;49.636;12.164;2023-08-08T15:16:52;20.76;47.49
68248;SHT30;55064;49.636;12.164;2023-08-08T15:19:18;20.76;48.28
68248;SHT30;55064;49.636;12.164;2023-08-08T15:21:44;20.57;47.95
68248;SHT30;55064;49.636;12.164;2023-08-08T15:24:12;20.40;48.02
68248;SHT30;55064;49.636;12.164;2023-08-08T15:26:37;20.15;48.45
68248;SHT30;55064;49.636;12.164;2023-08-08T15:29:03;20.07;49.11
68248;SHT30;55064;49.636;12.164;2023-08-08T15:31:31;19.91;50.13
68248;SHT30;55064;49.636;12.164;2023-08-08T15:34:00;19.91;50.59
68248;SHT30;55064;49.636;12.164;2023-08-08T15:36:26;19.78;51.01
68248;SHT30;55064;49.636;12.164;2023-08-08T15:38:52;19.85;51.43
68248;SHT30;55064;49.636;12.164;2023-08-08T15:41:17;19.84;51.34
68248;SHT30;55064;49.636;12.164;2023-08-08T15:43:43;19.81;51.07
68248;SHT30;55064;49.636;12.164;2023-08-08T15:46:09;19.88;51.04
68248;SHT30;55064;49.636;12.164;2023-08-08T15:48:34;19.91;50.92
68248;SHT30;55064;49.636;12.164;2023-08-08T15:51:00;19.87;52.02
68248;SHT30;55064;49.636;12.164;2023-08-08T15:53:25;19.88;52.16
68248;SHT30;55064;49.636;12.164;2023-08-08T15:55:53;19.85;52.34
68248;SHT30;55064;49.636;12.164;2023-08-08T15:58:18;19.62;50.70
68248;SHT30;55064;49.636;12.164;2023-08-08T16:00:44;19.54;51.66
68248;SHT30;55064;49.636;12.164;2023-08-08T16:03:09;19.56;52.06
68248;SHT30;55064;49.636;12.164;2023-08-08T16:05:35;19.42;51.66
68248;SHT30;55064;49.636;12.164;2023-08-08T16:08:03;19.37;52.11
68248;SHT30;55064;49.636;12.164;2023-08-08T16:10:34;19.35;52.81
68248;SHT30;55064;49.636;12.164;2023-08-08T16:12:59;19.25;52.58
68248;SHT30;55064;49.636;12.164;2023-08-08T16:15:25;19.26;52.53
68248;SHT30;55064;49.636;12.164;2023-08-08T16:17:50;19.22;52.82
68248;SHT30;55064;49.636;12.164;2023-08-08T16:20:16;19.19;53.12
68248;SHT30;55064;49.636;12.164;2023-08-08T16:22:42;19.22;53.87
68248;SHT30;55064;49.636;12.164;2023-08-08T16:25:08;19.25;53.61
68248;SHT30;55064;49.636;12.164;2023-08-08T16:27:37;19.25;53.28
68248;SHT30;55064;49.636;12.164;2023-08-08T16:30:05;19.22;52.74
68248;SHT30;55064;49.636;12.164;2023-08-08T16:32:33;19.16;53.24
68248;SHT30;55064;49.636;12.164;2023-08-08T16:34:58;19.09;53.81
68248;SHT30;55064;49.636;12.164;2023-08-08T16:37:23;19.12;53.97
68248;SHT30;55064;49.636;12.164;2023-08-08T16:39:49;19.07;54.02
68248;SHT30;55064;49.636;12.164;2023-08-08T16:42:14;19.12;54.25
68248;SHT30;55064;49.636;12.164;2023-08-08T16:44:42;19.16;54.69
68248;SHT30;55064;49.636;12.164;2023-08-08T16:47:08;19.20;54.04
68248;SHT30;55064;49.636;12.164;2023-08-08T16:49:36;19.22;54.33
68248;SHT30;55064;49.636;12.164;2023-08-08T16:52:05;19.20;54.29
68248;SHT30;55064;49.636;12.164;2023-08-08T16:54:32;19.20;54.58
68248;SHT30;55064;49.636;12.164;2023-08-08T16:57:01;19.14;54.62
68248;SHT30;55064;49.636;12.164;2023-08-08T16:59:26;19.09;54.73
68248;SHT30;55064;49.636;12.164;2023-08-08T17:01:52;19.08;54.40
68248;SHT30;55064;49.636;12.164;2023-08-08T17:04:17;19.09;54.79
68248;SHT30;55064;49.636;12.164;2023-08-08T17:06:45;19.08;54.52
68248;SHT30;55064;49.636;12.164;2023-08-08T17:09:11;19.11;54.93
68248;SHT30;55064;49.636;12.164;2023-08-08T17:11:37;19.11;55.55
68248;SHT30;55064;49.636;12.164;2023-08-08T17:14:03;19.02;55.46
68248;SHT30;55064;49.636;12.164;2023-08-08T17:16:29;19.05;55.67
68248;SHT30;55064;49.636;12.164;2023-08-08T17:18:56;18.98;55.29
68248;SHT30;55064;49.636;12.164;2023-08-08T17:21:25;18.92;55.31
68248;SHT30;55064;49.636;12.164;2023-08-08T17:23:50;18.90;54.39
68248;SHT30;55064;49.636;12.164;2023-08-08T17:26:17;18.83;54.70
68248;SHT30;55064;49.636;12.164;2023-08-08T17:28:42;18.80;54.71
68248;SHT30;55064;49.636;12.164;2023-08-08T17:31:08;18.78;54.37
68248;SHT30;55064;49.636;12.164;2023-08-08T17:33:34;18.75;55.06
68248;SHT30;55064;49.636;12.164;2023-08-08T17:36:00;18.77;54.77
68248;SHT30;55064;49.636;12.164;2023-08-08T17:38:25;18.73;54.70
68248;SHT30;55064;49.636;12.164;2023-08-08T17:40:55;18.68;55.24
68248;SHT30;55064;49.636;12.164;2023-08-08T17:43:20;18.59;56.03
68248;SHT30;55064;49.636;12.164;2023-08-08T17:45:48;18.59;55.93
68248;SHT30;55064;49.636;12.164;2023-08-08T17:48:14;18.57;55.90
68248;SHT30;55064;49.636;12.164;2023-08-08T17:50:40;18.47;56.16
68248;SHT30;55064;49.636;12.164;2023-08-08T17:53:06;18.43;56.06